sensor_id;sensor_type;location;lat;lon;timestamp;P1;durP1;ratioP1;P2;durP2;ratioP2
21270;SDS011;10795;50.796;3.860;2022-10-31T00:02:10;14.65;;;10.10;;
21270;SDS011;10795;50.796;3.860;2022-10-31T00:04:36;13.75;;;10.60;;
21270;SDS011;10795;50.796;3.860;2022-10-31T00:07:01;16.25;;;11.00;;
21270;SDS011;10795;50.796;3.860;2022-10-31T00:09:27;16.00;;;10.98;;
21270;SDS011;10795;50.796;3.860;2022-10-31T00:11:53;15.93;;;10.82;;
21270;SDS011;10795;50.796;3.860;2022-10-31T00:14:18;18.08;;;11.60;;
21270;SDS011;10795;50.796;3.860;2022-10-31T00:16:44;19.20;;;11.60;;
21270;SDS011;10795;50.796;3.860;2022-10-31T00:19:10;20.48;;;11.32;;
21270;SDS011;10795;50.796;3.860;2022-10-31T00:21:35;17.08;;;11.27;;
21270;SDS011;10795;50.796;3.860;2022-10-31T00:24:01;18.88;;;10.70;;
21270;SDS011;10795;50.796;3.860;2022-10-31T00:26:28;18.75;;;11.35;;
21270;SDS011;10795;50.796;3.860;2022-10-31T00:28:55;16.38;;;10.65;;
21270;SDS011;10795;50.796;3.860;2022-10-31T00:31:21;17.73;;;10.57;;
21270;SDS011;10795;50.796;3.860;2022-10-31T00:33:48;16.33;;;11.82;;
21270;SDS011;10795;50.796;3.860;2022-10-31T00:36:17;16.77;;;11.55;;
21270;SDS011;10795;50.796;3.860;2022-10-31T00:38:44;19.05;;;11.05;;
21270;SDS011;10795;50.796;3.860;2022-10-31T00:41:11;16.85;;;11.30;;
21270;SDS011;10795;50.796;3.860;2022-10-31T00:43:39;15.13;;;10.88;;
21270;SDS011;10795;50.796;3.860;2022-10-31T00:46:06;14.50;;;10.57;;
21270;SDS011;10795;50.796;3.860;2022-10-31T00:48:32;18.27;;;10.65;;
21270;SDS011;10795;50.796;3.860;2022-10-31T00:50:57;14.15;;;11.02;;
21270;SDS011;10795;50.796;3.860;2022-10-31T00:53:23;16.17;;;10.15;;
21270;SDS011;10795;50.796;3.860;2022-10-31T00:55:49;14.00;;;10.77;;
21270;SDS011;10795;50.796;3.860;2022-10-31T00:58:15;15.20;;;10.88;;
21270;SDS011;10795;50.796;3.860;2022-10-31T01:00:42;17.73;;;11.23;;
21270;SDS011;10795;50.796;3.860;2022-10-31T01:03:08;16.75;;;10.60;;
21270;SDS011;10795;50.796;3.860;2022-10-31T01:05:37;17.83;;;10.53;;
21270;SDS011;10795;50.796;3.860;2022-10-31T01:08:03;14.85;;;10.02;;
21270;SDS011;10795;50.796;3.860;2022-10-31T01:10:28;14.55;;;9.68;;
21270;SDS011;10795;50.796;3.860;2022-10-31T01:12:54;15.20;;;10.32;;
21270;SDS011;10795;50.796;3.860;2022-10-31T01:15:21;18.67;;;10.23;;
21270;SDS011;10795;50.796;3.860;2022-10-31T01:17:48;15.93;;;10.45;;
21270;SDS011;10795;50.796;3.860;2022-10-31T01:20:15;15.23;;;9.90;;
21270;SDS011;10795;50.796;3.860;2022-10-31T01:22:42;16.52;;;10.07;;
21270;SDS011;10795;50.796;3.860;2022-10-31T01:25:08;14.32;;;10.00;;
21270;SDS011;10795;50.796;3.860;2022-10-31T01:27:34;15.02;;;8.60;;
21270;SDS011;10795;50.796;3.860;2022-10-31T01:30:00;15.25;;;9.50;;
21270;SDS011;10795;50.796;3.860;2022-10-31T01:32:26;13.18;;;8.60;;
21270;SDS011;10795;50.796;3.860;2022-10-31T01:34:54;13.18;;;8.90;;
21270;SDS011;10795;50.796;3.860;2022-10-31T01:37:20;13.70;;;9.57;;
21270;SDS011;10795;50.796;3.860;2022-10-31T01:39:47;18.65;;;9.93;;
21270;SDS011;10795;50.796;3.860;2022-10-31T01:42:18;7.88;;;6.75;;
21270;SDS011;10795;50.796;3.860;2022-10-31T01:44:52;16.35;;;9.25;;
21270;SDS011;10795;50.796;3.860;2022-10-31T01:47:22;14.63;;;9.55;;
21270;SDS011;10795;50.796;3.860;2022-10-31T01:50:08;16.80;;;9.00;;
21270;SDS011;10795;50.796;3.860;2022-10-31T01:57:41;14.43;;;9.00;;
21270;SDS011;10795;50.796;3.860;2022-10-31T02:00:11;13.35;;;8.20;;
21270;SDS011;10795;50.796;3.860;2022-10-31T02:02:41;13.05;;;6.68;;
21270;SDS011;10795;50.796;3.860;2022-10-31T02:05:09;8.23;;;6.93;;
21270;SDS011;10795;50.796;3.860;2022-10-31T02:10:29;10.27;;;7.80;;
21270;SDS011;10795;50.796;3.860;2022-10-31T02:12:57;12.45;;;8.02;;
21270;SDS011;10795;50.796;3.860;2022-10-31T02:15:24;10.43;;;7.10;;
21270;SDS011;10795;50.796;3.860;2022-10-31T02:17:51;12.55;;;8.32;;
21270;SDS011;10795;50.796;3.860;2022-10-31T02:20:18;13.48;;;8.45;;
21270;SDS011;10795;50.796;3.860;2022-10-31T02:33:55;12.05;;;7.45;;
21270;SDS011;10795;50.796;3.860;2022-10-31T02:45:07;4.28;;;3.88;;
21270;SDS011;10795;50.796;3.860;2022-10-31T02:47:44;4.47;;;4.07;;
21270;SDS011;10795;50.796;3.860;2022-10-31T02:50:21;5.40;;;3.70;;
21270;SDS011;10795;50.796;3.860;2022-10-31T02:52:51;4.03;;;3.63;;
21270;SDS011;10795;50.796;3.860;2022-10-31T02:57:57;3.90;;;3.60;;
21270;SDS011;10795;50.796;3.860;2022-10-31T03:00:25;4.22;;;3.78;;
21270;SDS011;10795;50.796;3.860;2022-10-31T03:11:06;5.80;;;5.20;;
21270;SDS011;10795;50.796;3.860;2022-10-31T03:13:41;9.57;;;4.88;;
21270;SDS011;10795;50.796;3.860;2022-10-31T03:16:16;9.30;;;5.22;;
21270;SDS011;10795;50.796;3.860;2022-10-31T03:18:53;5.03;;;4.30;;
21270;SDS011;10795;50.796;3.860;2022-10-31T03:21:27;11.05;;;3.97;;
21270;SDS011;10795;50.796;3.860;2022-10-31T03:24:01;3.97;;;3.05;;
21270;SDS011;10795;50.796;3.860;2022-10-31T03:26:29;4.22;;;3.80;;
21270;SDS011;10795;50.796;3.860;2022-10-31T03:28:57;4.75;;;3.70;;
21270;SDS011;10795;50.796;3.860;2022-10-31T03:31:47;6.18;;;4.10;;
21270;SDS011;10795;50.796;3.860;2022-10-31T03:34:20;3.33;;;3.03;;
21270;SDS011;10795;50.796;3.860;2022-10-31T03:36:47;5.40;;;3.30;;
21270;SDS011;10795;50.796;3.860;2022-10-31T03:39:15;7.70;;;4.05;;
21270;SDS011;10795;50.796;3.860;2022-10-31T03:41:46;4.60;;;4.20;;
21270;SDS011;10795;50.796;3.860;2022-10-31T03:44:26;7.53;;;3.60;;
21270;SDS011;10795;50.796;3.860;2022-10-31T03:46:58;4.10;;;3.30;;
21270;SDS011;10795;50.796;3.860;2022-10-31T03:49:24;5.45;;;3.33;;
21270;SDS011;10795;50.796;3.860;2022-10-31T03:52:01;5.50;;;4.95;;
21270;SDS011;10795;50.796;3.860;2022-10-31T03:54:45;5.35;;;4.78;;
21270;SDS011;10795;50.796;3.860;2022-10-31T03:59:50;10.88;;;6.53;;
21270;SDS011;10795;50.796;3.860;2022-10-31T04:02:22;8.02;;;6.00;;
21270;SDS011;10795;50.796;3.860;2022-10-31T04:04:53;9.32;;;6.05;;
21270;SDS011;10795;50.796;3.860;2022-10-31T04:07:20;9.43;;;5.47;;
21270;SDS011;10795;50.796;3.860;2022-10-31T04:09:50;16.73;;;5.13;;
21270;SDS011;10795;50.796;3.860;2022-10-31T04:12:19;6.10;;;5.50;;
21270;SDS011;10795;50.796;3.860;2022-10-31T04:15:13;4.97;;;4.50;;
21270;SDS011;10795;50.796;3.860;2022-10-31T04:17:40;4.97;;;4.30;;
21270;SDS011;10795;50.796;3.860;2022-10-31T04:20:08;12.25;;;4.07;;
21270;SDS011;10795;50.796;3.860;2022-10-31T04:22:34;22.58;;;5.00;;
21270;SDS011;10795;50.796;3.860;2022-10-31T04:25:00;20.85;;;5.70;;
21270;SDS011;10795;50.796;3.860;2022-10-31T04:27:25;8.57;;;6.55;;
21270;SDS011;10795;50.796;3.860;2022-10-31T04:29:51;11.55;;;6.97;;
21270;SDS011;10795;50.796;3.860;2022-10-31T04:32:17;16.63;;;7.32;;
21270;SDS011;10795;50.796;3.860;2022-10-31T04:34:43;12.30;;;6.80;;
21270;SDS011;10795;50.796;3.860;2022-10-31T04:37:09;7.88;;;4.95;;
21270;SDS011;10795;50.796;3.860;2022-10-31T04:39:35;4.35;;;3.90;;
21270;SDS011;10795;50.796;3.860;2022-10-31T04:42:24;4.07;;;3.30;;
21270;SDS011;10795;50.796;3.860;2022-10-31T04:44:50;3.42;;;3.17;;
21270;SDS011;10795;50.796;3.860;2022-10-31T04:47:16;4.13;;;3.53;;
21270;SDS011;10795;50.796;3.860;2022-10-31T04:49:42;9.43;;;4.50;;
21270;SDS011;10795;50.796;3.860;2022-10-31T04:52:09;16.15;;;6.00;;
21270;SDS011;10795;50.796;3.860;2022-10-31T04:54:35;8.10;;;5.88;;
21270;SDS011;10795;50.796;3.860;2022-10-31T04:57:24;20.23;;;6.40;;
21270;SDS011;10795;50.796;3.860;2022-10-31T04:59:50;21.85;;;5.93;;
21270;SDS011;10795;50.796;3.860;2022-10-31T05:02:15;11.30;;;6.07;;
21270;SDS011;10795;50.796;3.860;2022-10-31T05:04:46;9.75;;;6.07;;
21270;SDS011;10795;50.796;3.860;2022-10-31T05:07:11;10.50;;;5.97;;
21270;SDS011;10795;50.796;3.860;2022-10-31T05:09:37;40.78;;;6.40;;
21270;SDS011;10795;50.796;3.860;2022-10-31T05:12:03;43.33;;;6.10;;
21270;SDS011;10795;50.796;3.860;2022-10-31T05:14:52;64.93;;;7.13;;
21270;SDS011;10795;50.796;3.860;2022-10-31T05:17:36;40.80;;;6.65;;
21270;SDS011;10795;50.796;3.860;2022-10-31T05:20:20;13.85;;;6.88;;
21270;SDS011;10795;50.796;3.860;2022-10-31T05:23:23;6.65;;;6.00;;
21270;SDS011;10795;50.796;3.860;2022-10-31T05:25:49;13.00;;;6.60;;
21270;SDS011;10795;50.796;3.860;2022-10-31T05:28:16;14.63;;;6.80;;
21270;SDS011;10795;50.796;3.860;2022-10-31T05:30:42;18.15;;;6.82;;
21270;SDS011;10795;50.796;3.860;2022-10-31T05:33:11;7.15;;;6.03;;
21270;SDS011;10795;50.796;3.860;2022-10-31T05:35:39;17.38;;;6.22;;
21270;SDS011;10795;50.796;3.860;2022-10-31T05:38:25;17.02;;;6.90;;
21270;SDS011;10795;50.796;3.860;2022-10-31T05:40:56;17.33;;;6.45;;
21270;SDS011;10795;50.796;3.860;2022-10-31T05:43:30;9.35;;;6.20;;
21270;SDS011;10795;50.796;3.860;2022-10-31T05:45:56;7.93;;;6.53;;
21270;SDS011;10795;50.796;3.860;2022-10-31T05:48:42;8.85;;;6.13;;
21270;SDS011;10795;50.796;3.860;2022-10-31T05:51:42;9.48;;;6.07;;
21270;SDS011;10795;50.796;3.860;2022-10-31T05:54:09;7.53;;;5.55;;
21270;SDS011;10795;50.796;3.860;2022-10-31T05:56:37;7.93;;;5.45;;
21270;SDS011;10795;50.796;3.860;2022-10-31T05:59:02;8.85;;;5.75;;
21270;SDS011;10795;50.796;3.860;2022-10-31T06:01:30;6.00;;;5.40;;
21270;SDS011;10795;50.796;3.860;2022-10-31T06:04:01;5.47;;;4.97;;
21270;SDS011;10795;50.796;3.860;2022-10-31T06:06:30;9.77;;;6.28;;
21270;SDS011;10795;50.796;3.860;2022-10-31T06:08:56;8.23;;;5.97;;
21270;SDS011;10795;50.796;3.860;2022-10-31T06:11:24;6.85;;;6.07;;
21270;SDS011;10795;50.796;3.860;2022-10-31T06:14:19;7.97;;;6.53;;
21270;SDS011;10795;50.796;3.860;2022-10-31T06:16:51;7.10;;;6.03;;
21270;SDS011;10795;50.796;3.860;2022-10-31T06:19:51;7.70;;;6.00;;
21270;SDS011;10795;50.796;3.860;2022-10-31T06:22:20;7.15;;;5.88;;
21270;SDS011;10795;50.796;3.860;2022-10-31T06:24:46;6.10;;;5.50;;
21270;SDS011;10795;50.796;3.860;2022-10-31T06:27:38;6.00;;;5.38;;
21270;SDS011;10795;50.796;3.860;2022-10-31T06:30:10;6.35;;;5.75;;
21270;SDS011;10795;50.796;3.860;2022-10-31T06:32:36;6.32;;;4.95;;
21270;SDS011;10795;50.796;3.860;2022-10-31T06:35:02;5.55;;;5.05;;
21270;SDS011;10795;50.796;3.860;2022-10-31T06:37:28;5.63;;;5.13;;
21270;SDS011;10795;50.796;3.860;2022-10-31T06:40:00;6.13;;;5.50;;
21270;SDS011;10795;50.796;3.860;2022-10-31T06:42:26;5.47;;;4.97;;
21270;SDS011;10795;50.796;3.860;2022-10-31T06:44:52;7.35;;;5.88;;
21270;SDS011;10795;50.796;3.860;2022-10-31T06:47:49;7.40;;;6.25;;
21270;SDS011;10795;50.796;3.860;2022-10-31T06:50:24;8.60;;;7.07;;
21270;SDS011;10795;50.796;3.860;2022-10-31T06:52:55;9.55;;;6.90;;
21270;SDS011;10795;50.796;3.860;2022-10-31T06:55:22;8.82;;;6.72;;
21270;SDS011;10795;50.796;3.860;2022-10-31T06:57:52;9.48;;;6.32;;
21270;SDS011;10795;50.796;3.860;2022-10-31T07:00:19;10.15;;;6.93;;
21270;SDS011;10795;50.796;3.860;2022-10-31T07:03:02;8.82;;;6.72;;
21270;SDS011;10795;50.796;3.860;2022-10-31T07:05:30;10.27;;;7.05;;
21270;SDS011;10795;50.796;3.860;2022-10-31T07:07:58;11.05;;;7.72;;
21270;SDS011;10795;50.796;3.860;2022-10-31T07:12:59;10.23;;;7.38;;
21270;SDS011;10795;50.796;3.860;2022-10-31T07:15:29;7.80;;;6.28;;
21270;SDS011;10795;50.796;3.860;2022-10-31T07:18:02;11.70;;;7.13;;
21270;SDS011;10795;50.796;3.860;2022-10-31T07:20:29;10.95;;;7.88;;
21270;SDS011;10795;50.796;3.860;2022-10-31T07:22:56;12.90;;;7.75;;
21270;SDS011;10795;50.796;3.860;2022-10-31T07:25:23;9.65;;;7.70;;
21270;SDS011;10795;50.796;3.860;2022-10-31T07:28:06;10.60;;;7.80;;
21270;SDS011;10795;50.796;3.860;2022-10-31T07:30:32;10.27;;;7.88;;
21270;SDS011;10795;50.796;3.860;2022-10-31T07:32:58;10.63;;;7.53;;
21270;SDS011;10795;50.796;3.860;2022-10-31T07:35:40;11.05;;;7.85;;
21270;SDS011;10795;50.796;3.860;2022-10-31T07:38:06;12.57;;;7.97;;
21270;SDS011;10795;50.796;3.860;2022-10-31T07:40:36;11.18;;;7.32;;
21270;SDS011;10795;50.796;3.860;2022-10-31T07:43:02;10.98;;;6.90;;
21270;SDS011;10795;50.796;3.860;2022-10-31T07:45:54;10.00;;;6.80;;
21270;SDS011;10795;50.796;3.860;2022-10-31T07:48:54;10.90;;;7.07;;
21270;SDS011;10795;50.796;3.860;2022-10-31T07:51:38;9.82;;;7.57;;
21270;SDS011;10795;50.796;3.860;2022-10-31T07:54:22;12.45;;;7.63;;
21270;SDS011;10795;50.796;3.860;2022-10-31T07:56:48;10.23;;;7.80;;
21270;SDS011;10795;50.796;3.860;2022-10-31T07:59:14;10.00;;;8.52;;
21270;SDS011;10795;50.796;3.860;2022-10-31T08:01:40;12.30;;;9.45;;
21270;SDS011;10795;50.796;3.860;2022-10-31T08:04:26;12.25;;;9.10;;
21270;SDS011;10795;50.796;3.860;2022-10-31T08:07:10;11.48;;;8.90;;
21270;SDS011;10795;50.796;3.860;2022-10-31T08:09:38;16.95;;;9.20;;
21270;SDS011;10795;50.796;3.860;2022-10-31T08:12:15;11.60;;;8.40;;
21270;SDS011;10795;50.796;3.860;2022-10-31T08:14:41;12.52;;;8.50;;
21270;SDS011;10795;50.796;3.860;2022-10-31T08:17:07;10.70;;;8.40;;
21270;SDS011;10795;50.796;3.860;2022-10-31T08:19:42;10.48;;;7.65;;
21270;SDS011;10795;50.796;3.860;2022-10-31T08:22:11;8.73;;;7.75;;
21270;SDS011;10795;50.796;3.860;2022-10-31T08:24:37;10.55;;;7.93;;
21270;SDS011;10795;50.796;3.860;2022-10-31T08:27:03;15.88;;;9.93;;
21270;SDS011;10795;50.796;3.860;2022-10-31T08:29:29;14.35;;;10.13;;
21270;SDS011;10795;50.796;3.860;2022-10-31T08:31:57;16.17;;;10.27;;
21270;SDS011;10795;50.796;3.860;2022-10-31T08:34:41;15.10;;;9.63;;
21270;SDS011;10795;50.796;3.860;2022-10-31T08:37:25;12.63;;;10.10;;
21270;SDS011;10795;50.796;3.860;2022-10-31T08:39:53;11.35;;;9.55;;
21270;SDS011;10795;50.796;3.860;2022-10-31T08:42:20;12.82;;;10.27;;
21270;SDS011;10795;50.796;3.860;2022-10-31T08:44:46;14.23;;;8.98;;
21270;SDS011;10795;50.796;3.860;2022-10-31T08:47:12;12.82;;;9.70;;
21270;SDS011;10795;50.796;3.860;2022-10-31T08:49:38;8.43;;;7.05;;
21270;SDS011;10795;50.796;3.860;2022-10-31T08:52:04;12.20;;;9.25;;
21270;SDS011;10795;50.796;3.860;2022-10-31T08:54:34;17.75;;;10.48;;
21270;SDS011;10795;50.796;3.860;2022-10-31T08:57:23;15.50;;;10.32;;
21270;SDS011;10795;50.796;3.860;2022-10-31T08:59:49;13.40;;;9.88;;
21270;SDS011;10795;50.796;3.860;2022-10-31T09:02:23;13.43;;;10.50;;
21270;SDS011;10795;50.796;3.860;2022-10-31T09:04:52;18.27;;;11.03;;
21270;SDS011;10795;50.796;3.860;2022-10-31T09:07:18;17.13;;;11.40;;
21270;SDS011;10795;50.796;3.860;2022-10-31T09:09:44;17.20;;;10.90;;
21270;SDS011;10795;50.796;3.860;2022-10-31T09:12:10;13.88;;;11.00;;
21270;SDS011;10795;50.796;3.860;2022-10-31T09:14:54;16.45;;;10.40;;
21270;SDS011;10795;50.796;3.860;2022-10-31T09:17:27;16.75;;;11.02;;
21270;SDS011;10795;50.796;3.860;2022-10-31T09:20:12;13.75;;;10.95;;
21270;SDS011;10795;50.796;3.860;2022-10-31T09:22:38;16.15;;;11.35;;
21270;SDS011;10795;50.796;3.860;2022-10-31T09:25:04;15.38;;;12.07;;
21270;SDS011;10795;50.796;3.860;2022-10-31T09:27:30;19.23;;;11.65;;
21270;SDS011;10795;50.796;3.860;2022-10-31T09:29:58;15.23;;;12.57;;
21270;SDS011;10795;50.796;3.860;2022-10-31T09:32:25;16.65;;;13.10;;
21270;SDS011;10795;50.796;3.860;2022-10-31T09:34:51;17.30;;;11.98;;
21270;SDS011;10795;50.796;3.860;2022-10-31T09:37:19;15.57;;;12.25;;
21270;SDS011;10795;50.796;3.860;2022-10-31T09:39:45;17.63;;;12.85;;
21270;SDS011;10795;50.796;3.860;2022-10-31T09:42:25;16.95;;;12.15;;
21270;SDS011;10795;50.796;3.860;2022-10-31T09:51:45;43.53;;;13.35;;
21270;SDS011;10795;50.796;3.860;2022-10-31T09:54:32;17.40;;;10.20;;
21270;SDS011;10795;50.796;3.860;2022-10-31T09:57:27;16.52;;;9.70;;
21270;SDS011;10795;50.796;3.860;2022-10-31T09:59:56;15.55;;;12.15;;
21270;SDS011;10795;50.796;3.860;2022-10-31T10:02:24;16.10;;;11.43;;
21270;SDS011;10795;50.796;3.860;2022-10-31T10:05:01;16.92;;;9.80;;
21270;SDS011;10795;50.796;3.860;2022-10-31T10:14:01;11.75;;;8.18;;
21270;SDS011;10795;50.796;3.860;2022-10-31T10:16:46;17.23;;;8.00;;
21270;SDS011;10795;50.796;3.860;2022-10-31T10:25:39;14.20;;;7.30;;
21270;SDS011;10795;50.796;3.860;2022-10-31T10:31:07;14.93;;;8.13;;
21270;SDS011;10795;50.796;3.860;2022-10-31T10:39:16;12.23;;;8.07;;
21270;SDS011;10795;50.796;3.860;2022-10-31T10:41:47;17.30;;;9.50;;
21270;SDS011;10795;50.796;3.860;2022-10-31T10:44:33;30.85;;;13.23;;
21270;SDS011;10795;50.796;3.860;2022-10-31T10:47:28;14.27;;;10.13;;
21270;SDS011;10795;50.796;3.860;2022-10-31T10:50:14;14.80;;;9.57;;
21270;SDS011;10795;50.796;3.860;2022-10-31T10:58:10;17.23;;;12.52;;
21270;SDS011;10795;50.796;3.860;2022-10-31T11:00:38;19.63;;;12.25;;
21270;SDS011;10795;50.796;3.860;2022-10-31T11:03:06;17.55;;;10.82;;
21270;SDS011;10795;50.796;3.860;2022-10-31T11:05:42;16.70;;;10.48;;
21270;SDS011;10795;50.796;3.860;2022-10-31T11:08:24;14.02;;;8.60;;
21270;SDS011;10795;50.796;3.860;2022-10-31T11:10:58;17.92;;;10.73;;
21270;SDS011;10795;50.796;3.860;2022-10-31T11:13:48;15.05;;;8.98;;
21270;SDS011;10795;50.796;3.860;2022-10-31T11:21:44;11.60;;;8.20;;
21270;SDS011;10795;50.796;3.860;2022-10-31T11:26:36;15.15;;;9.05;;
21270;SDS011;10795;50.796;3.860;2022-10-31T11:29:04;12.90;;;8.45;;
21270;SDS011;10795;50.796;3.860;2022-10-31T11:31:36;14.82;;;9.95;;
21270;SDS011;10795;50.796;3.860;2022-10-31T11:34:03;18.08;;;10.52;;
21270;SDS011;10795;50.796;3.860;2022-10-31T11:36:32;19.85;;;12.90;;
21270;SDS011;10795;50.796;3.860;2022-10-31T11:39:00;14.50;;;11.30;;
21270;SDS011;10795;50.796;3.860;2022-10-31T11:41:32;14.50;;;10.55;;
21270;SDS011;10795;50.796;3.860;2022-10-31T11:46:38;25.13;;;17.23;;
21270;SDS011;10795;50.796;3.860;2022-10-31T11:49:11;25.30;;;15.68;;
21270;SDS011;10795;50.796;3.860;2022-10-31T11:51:47;24.77;;;14.27;;
21270;SDS011;10795;50.796;3.860;2022-10-31T11:54:23;20.52;;;15.30;;
21270;SDS011;10795;50.796;3.860;2022-10-31T11:56:54;18.95;;;13.50;;
21270;SDS011;10795;50.796;3.860;2022-10-31T11:59:22;19.13;;;12.10;;
21270;SDS011;10795;50.796;3.860;2022-10-31T12:01:54;17.08;;;11.88;;
21270;SDS011;10795;50.796;3.860;2022-10-31T12:04:54;19.08;;;12.93;;
21270;SDS011;10795;50.796;3.860;2022-10-31T12:07:16;19.20;;;12.70;;
21270;SDS011;10795;50.796;3.860;2022-10-31T12:09:42;16.83;;;11.90;;
21270;SDS011;10795;50.796;3.860;2022-10-31T12:15:11;20.65;;;14.02;;
21270;SDS011;10795;50.796;3.860;2022-10-31T12:17:51;22.27;;;14.82;;
21270;SDS011;10795;50.796;3.860;2022-10-31T12:23:03;23.70;;;14.90;;
21270;SDS011;10795;50.796;3.860;2022-10-31T12:35:52;14.13;;;11.30;;
21270;SDS011;10795;50.796;3.860;2022-10-31T12:38:47;14.77;;;10.55;;
21270;SDS011;10795;50.796;3.860;2022-10-31T12:59:57;21.25;;;11.80;;
21270;SDS011;10795;50.796;3.860;2022-10-31T13:05:37;14.73;;;9.32;;
21270;SDS011;10795;50.796;3.860;2022-10-31T13:10:36;18.20;;;9.35;;
21270;SDS011;10795;50.796;3.860;2022-10-31T13:13:24;15.93;;;9.38;;
21270;SDS011;10795;50.796;3.860;2022-10-31T13:16:00;16.40;;;9.13;;
21270;SDS011;10795;50.796;3.860;2022-10-31T13:19:27;15.52;;;8.90;;
21270;SDS011;10795;50.796;3.860;2022-10-31T13:27:20;11.93;;;8.38;;
21270;SDS011;10795;50.796;3.860;2022-10-31T13:29:56;15.60;;;10.38;;
21270;SDS011;10795;50.796;3.860;2022-10-31T13:32:35;19.30;;;10.23;;
21270;SDS011;10795;50.796;3.860;2022-10-31T13:35:07;9.18;;;6.88;;
21270;SDS011;10795;50.796;3.860;2022-10-31T13:38:04;12.00;;;8.15;;
21270;SDS011;10795;50.796;3.860;2022-10-31T13:48:58;14.95;;;7.85;;
21270;SDS011;10795;50.796;3.860;2022-10-31T13:51:32;17.50;;;7.45;;
21270;SDS011;10795;50.796;3.860;2022-10-31T13:56:59;11.15;;;6.97;;
21270;SDS011;10795;50.796;3.860;2022-10-31T13:59:26;13.48;;;6.22;;
21270;SDS011;10795;50.796;3.860;2022-10-31T14:01:57;9.18;;;5.22;;
21270;SDS011;10795;50.796;3.860;2022-10-31T14:07:09;9.45;;;5.75;;
21270;SDS011;10795;50.796;3.860;2022-10-31T14:09:41;13.10;;;5.93;;
21270;SDS011;10795;50.796;3.860;2022-10-31T14:12:26;16.38;;;7.82;;
21270;SDS011;10795;50.796;3.860;2022-10-31T14:29:02;16.13;;;6.63;;
21270;SDS011;10795;50.796;3.860;2022-10-31T14:31:55;8.05;;;5.65;;
21270;SDS011;10795;50.796;3.860;2022-10-31T14:34:35;12.05;;;5.82;;
21270;SDS011;10795;50.796;3.860;2022-10-31T14:50:52;13.48;;;5.65;;
21270;SDS011;10795;50.796;3.860;2022-10-31T14:53:31;14.20;;;5.25;;
21270;SDS011;10795;50.796;3.860;2022-10-31T14:56:00;16.45;;;6.07;;
21270;SDS011;10795;50.796;3.860;2022-10-31T14:58:45;20.42;;;9.85;;
21270;SDS011;10795;50.796;3.860;2022-10-31T15:01:20;14.73;;;6.25;;
21270;SDS011;10795;50.796;3.860;2022-10-31T15:03:55;17.35;;;6.00;;
21270;SDS011;10795;50.796;3.860;2022-10-31T15:06:28;16.75;;;6.10;;
21270;SDS011;10795;50.796;3.860;2022-10-31T15:09:20;13.27;;;6.57;;
21270;SDS011;10795;50.796;3.860;2022-10-31T15:11:49;9.68;;;5.20;;
21270;SDS011;10795;50.796;3.860;2022-10-31T15:14:25;15.00;;;5.70;;
21270;SDS011;10795;50.796;3.860;2022-10-31T15:16:53;8.35;;;4.80;;
21270;SDS011;10795;50.796;3.860;2022-10-31T15:19:23;9.27;;;5.00;;
21270;SDS011;10795;50.796;3.860;2022-10-31T15:21:52;12.55;;;5.20;;
21270;SDS011;10795;50.796;3.860;2022-10-31T15:24:19;9.88;;;5.13;;
21270;SDS011;10795;50.796;3.860;2022-10-31T15:26:49;14.70;;;5.50;;
21270;SDS011;10795;50.796;3.860;2022-10-31T15:29:18;19.65;;;5.53;;
21270;SDS011;10795;50.796;3.860;2022-10-31T15:31:55;14.30;;;5.18;;
21270;SDS011;10795;50.796;3.860;2022-10-31T15:34:28;11.93;;;6.03;;
21270;SDS011;10795;50.796;3.860;2022-10-31T15:37:03;11.73;;;6.32;;
21270;SDS011;10795;50.796;3.860;2022-10-31T15:39:29;25.15;;;7.93;;
21270;SDS011;10795;50.796;3.860;2022-10-31T15:42:00;11.23;;;6.50;;
21270;SDS011;10795;50.796;3.860;2022-10-31T15:44:28;16.83;;;6.47;;
21270;SDS011;10795;50.796;3.860;2022-10-31T15:47:01;12.55;;;6.75;;
21270;SDS011;10795;50.796;3.860;2022-10-31T15:57:48;11.77;;;5.97;;
21270;SDS011;10795;50.796;3.860;2022-10-31T16:00:22;11.18;;;5.50;;
21270;SDS011;10795;50.796;3.860;2022-10-31T16:03:05;13.68;;;5.60;;
21270;SDS011;10795;50.796;3.860;2022-10-31T16:05:47;12.48;;;5.45;;
21270;SDS011;10795;50.796;3.860;2022-10-31T16:08:35;12.90;;;6.30;;
21270;SDS011;10795;50.796;3.860;2022-10-31T16:13:41;15.63;;;6.00;;
21270;SDS011;10795;50.796;3.860;2022-10-31T16:16:22;13.25;;;5.38;;
21270;SDS011;10795;50.796;3.860;2022-10-31T16:18:48;17.58;;;5.57;;
21270;SDS011;10795;50.796;3.860;2022-10-31T16:21:16;10.85;;;5.40;;
21270;SDS011;10795;50.796;3.860;2022-10-31T16:23:52;14.38;;;5.50;;
21270;SDS011;10795;50.796;3.860;2022-10-31T16:26:22;13.00;;;5.68;;
21270;SDS011;10795;50.796;3.860;2022-10-31T16:28:53;8.75;;;5.00;;
21270;SDS011;10795;50.796;3.860;2022-10-31T16:31:27;13.23;;;5.57;;
21270;SDS011;10795;50.796;3.860;2022-10-31T16:34:02;14.80;;;5.88;;
21270;SDS011;10795;50.796;3.860;2022-10-31T16:38:57;6.75;;;4.70;;
21270;SDS011;10795;50.796;3.860;2022-10-31T16:41:24;10.90;;;5.35;;
21270;SDS011;10795;50.796;3.860;2022-10-31T16:43:50;9.52;;;5.20;;
21270;SDS011;10795;50.796;3.860;2022-10-31T16:46:26;10.38;;;5.13;;
21270;SDS011;10795;50.796;3.860;2022-10-31T16:48:53;14.25;;;6.35;;
21270;SDS011;10795;50.796;3.860;2022-10-31T16:51:19;13.25;;;7.70;;
21270;SDS011;10795;50.796;3.860;2022-10-31T16:53:45;20.23;;;9.98;;
21270;SDS011;10795;50.796;3.860;2022-10-31T16:56:16;18.88;;;8.55;;
21270;SDS011;10795;50.796;3.860;2022-10-31T16:58:46;17.90;;;8.55;;
21270;SDS011;10795;50.796;3.860;2022-10-31T17:01:12;16.20;;;9.90;;
21270;SDS011;10795;50.796;3.860;2022-10-31T17:03:38;21.65;;;8.25;;
21270;SDS011;10795;50.796;3.860;2022-10-31T17:06:05;19.15;;;8.57;;
21270;SDS011;10795;50.796;3.860;2022-10-31T17:08:30;26.67;;;12.38;;
21270;SDS011;10795;50.796;3.860;2022-10-31T17:10:57;22.10;;;8.95;;
21270;SDS011;10795;50.796;3.860;2022-10-31T17:13:27;13.77;;;7.03;;
21270;SDS011;10795;50.796;3.860;2022-10-31T17:15:57;14.20;;;7.35;;
21270;SDS011;10795;50.796;3.860;2022-10-31T17:20:50;17.70;;;9.32;;
21270;SDS011;10795;50.796;3.860;2022-10-31T17:23:22;18.27;;;8.85;;
21270;SDS011;10795;50.796;3.860;2022-10-31T17:25:47;13.85;;;7.70;;
21270;SDS011;10795;50.796;3.860;2022-10-31T17:28:14;19.35;;;10.40;;
21270;SDS011;10795;50.796;3.860;2022-10-31T17:30:45;20.20;;;9.35;;
21270;SDS011;10795;50.796;3.860;2022-10-31T17:33:15;20.98;;;11.07;;
21270;SDS011;10795;50.796;3.860;2022-10-31T17:35:43;17.02;;;8.52;;
21270;SDS011;10795;50.796;3.860;2022-10-31T17:38:12;17.65;;;8.98;;
21270;SDS011;10795;50.796;3.860;2022-10-31T17:40:40;14.45;;;7.47;;
21270;SDS011;10795;50.796;3.860;2022-10-31T17:43:09;16.10;;;7.13;;
21270;SDS011;10795;50.796;3.860;2022-10-31T17:45:41;17.33;;;6.97;;
21270;SDS011;10795;50.796;3.860;2022-10-31T17:48:16;15.00;;;6.85;;
21270;SDS011;10795;50.796;3.860;2022-10-31T17:50:52;12.65;;;6.78;;
21270;SDS011;10795;50.796;3.860;2022-10-31T17:53:18;15.50;;;7.38;;
21270;SDS011;10795;50.796;3.860;2022-10-31T17:55:43;13.63;;;7.32;;
21270;SDS011;10795;50.796;3.860;2022-10-31T17:58:09;16.23;;;6.75;;
21270;SDS011;10795;50.796;3.860;2022-10-31T18:00:38;15.60;;;6.07;;
21270;SDS011;10795;50.796;3.860;2022-10-31T18:03:10;15.32;;;6.18;;
21270;SDS011;10795;50.796;3.860;2022-10-31T18:05:35;21.80;;;7.38;;
21270;SDS011;10795;50.796;3.860;2022-10-31T18:08:02;12.00;;;5.78;;
21270;SDS011;10795;50.796;3.860;2022-10-31T18:10:30;16.48;;;6.82;;
21270;SDS011;10795;50.796;3.860;2022-10-31T18:12:56;11.40;;;6.10;;